sensor_id;sensor_type;location;lat;lon;timestamp;pressure;altitude;pressure_sealevel;temperature;humidity
11001;BME280;5553;48.506;8.870;2022-09-30T02:24:02;95790.97;;;6.98;100.00
11001;BME280;5553;48.506;8.870;2022-09-30T02:26:36;95795.34;;;6.91;100.00
11001;BME280;5553;48.506;8.870;2022-09-30T02:29:08;95801.41;;;6.77;100.00
11001;BME280;5553;48.506;8.870;2022-09-30T02:31:41;95806.78;;;6.69;100.00
11001;BME280;5553;48.506;8.870;2022-09-30T02:34:13;95806.69;;;6.62;100.00
11001;BME280;5553;48.506;8.870;2022-09-30T02:36:46;95826.88;;;6.61;100.00
11001;BME280;5553;48.506;8.870;2022-09-30T02:39:26;95824.44;;;6.60;100.00
11001;BME280;5553;48.506;8.870;2022-09-30T02:42:00;95829.03;;;6.58;100.00
11001;BME280;5553;48.506;8.870;2022-09-30T02:44:33;95832.03;;;6.40;100.00
11001;BME280;5553;48.506;8.870;2022-09-30T02:47:10;95833.03;;;6.39;100.00
11001;BME280;5553;48.506;8.870;2022-09-30T02:49:45;95844.34;;;6.39;100.00
11001;BME280;5553;48.506;8.870;2022-09-30T02:52:22;95849.50;;;6.33;100.00
11001;BME280;5553;48.506;8.870;2022-09-30T02:55:04;95862.84;;;6.38;100.00
11001;BME280;5553;48.506;8.870;2022-09-30T02:57:43;95869.25;;;6.35;100.00
11001;BME280;5553;48.506;8.870;2022-09-30T03:00:17;95866.38;;;6.30;100.00
11001;BME280;5553;48.506;8.870;2022-09-30T03:02:45;95870.44;;;6.33;100.00
11001;BME280;5553;48.506;8.870;2022-09-30T03:05:14;95877.00;;;6.29;100.00
11001;BME280;5553;48.506;8.870;2022-09-30T03:07:42;95880.38;;;6.23;100.00
11001;BME280;5553;48.506;8.870;2022-09-30T03:10:14;95891.47;;;6.25;100.00
11001;BME280;5553;48.506;8.870;2022-09-30T03:13:03;95894.34;;;6.15;100.00
11001;BME280;5553;48.506;8.870;2022-09-30T03:15:42;95890.44;;;5.96;100.00
11001;BME280;5553;48.506;8.870;2022-09-30T03:18:21;95901.06;;;5.94;100.00
11001;BME280;5553;48.506;8.870;2022-09-30T03:21:03;95894.78;;;6.04;100.00
11001;BME280;5553;48.506;8.870;2022-09-30T03:23:46;95901.63;;;6.05;100.00
11001;BME280;5553;48.506;8.870;2022-09-30T03:26:27;95902.47;;;6.05;100.00
11001;BME280;5553;48.506;8.870;2022-09-30T03:29:07;95906.16;;;5.96;100.00
11001;BME280;5553;48.506;8.870;2022-09-30T03:31:42;95902.06;;;5.93;100.00
11001;BME280;5553;48.506;8.870;2022-09-30T03:34:19;95908.41;;;5.99;100.00
11001;BME280;5553;48.506;8.870;2022-09-30T03:36:58;95904.75;;;5.85;100.00
11001;BME280;5553;48.506;8.870;2022-09-30T03:39:38;95908.88;;;5.80;100.00
11001;BME280;5553;48.506;8.870;2022-09-30T03:42:18;95909.56;;;5.74;100.00
11001;BME280;5553;48.506;8.870;2022-09-30T03:44:56;95909.69;;;5.80;100.00
11001;BME280;5553;48.506;8.870;2022-09-30T03:47:28;95921.56;;;5.68;100.00
11001;BME280;5553;48.506;8.870;2022-09-30T03:50:00;95921.25;;;5.63;100.00
11001;BME280;5553;48.506;8.870;2022-09-30T03:52:31;95920.00;;;5.59;100.00
11001;BME280;5553;48.506;8.870;2022-09-30T03:55:02;95925.16;;;5.67;100.00
11001;BME280;5553;48.506;8.870;2022-09-30T03:57:34;95931.34;;;5.51;100.00
11001;BME280;5553;48.506;8.870;2022-09-30T04:00:05;95931.63;;;5.56;100.00
11001;BME280;5553;48.506;8.870;2022-09-30T04:02:33;95941.63;;;5.53;100.00
11001;BME280;5553;48.506;8.870;2022-09-30T04:05:03;95947.19;;;5.50;100.00
11001;BME280;5553;48.506;8.870;2022-09-30T04:07:33;95945.56;;;5.49;100.00
11001;BME280;5553;48.506;8.870;2022-09-30T04:10:01;95953.22;;;5.50;100.00
11001;BME280;5553;48.506;8.870;2022-09-30T04:12:30;95960.47;;;5.48;100.00
11001;BME280;5553;48.506;8.870;2022-09-30T04:15:00;95976.91;;;5.57;100.00
11001;BME280;5553;48.506;8.870;2022-09-30T04:17:29;95966.28;;;5.58;100.00
11001;BME280;5553;48.506;8.870;2022-09-30T04:19:57;95974.88;;;5.44;100.00
11001;BME280;5553;48.506;8.870;2022-09-30T04:22:26;95982.41;;;5.39;100.00
11001;BME280;5553;48.506;8.870;2022-09-30T04:24:54;95983.34;;;5.46;100.00
11001;BME280;5553;48.506;8.870;2022-09-30T04:27:22;95992.94;;;5.54;100.00
11001;BME280;5553;48.506;8.870;2022-09-30T04:29:51;95995.41;;;5.55;100.00
11001;BME280;5553;48.506;8.870;2022-09-30T04:32:23;95998.50;;;5.59;100.00
11001;BME280;5553;48.506;8.870;2022-09-30T04:34:53;95996.00;;;5.65;100.00
11001;BME280;5553;48.506;8.870;2022-09-30T04:37:21;96003.84;;;5.65;100.00
11001;BME280;5553;48.506;8.870;2022-09-30T04:39:50;96006.75;;;5.70;100.00
11001;BME280;5553;48.506;8.870;2022-09-30T04:42:18;96005.19;;;5.84;100.00
11001;BME280;5553;48.506;8.870;2022-09-30T04:44:46;96004.84;;;5.96;100.00
11001;BME280;5553;48.506;8.870;2022-09-30T04:47:15;96005.66;;;5.96;100.00
11001;BME280;5553;48.506;8.870;2022-09-30T04:49:46;96008.91;;;5.98;100.00
11001;BME280;5553;48.506;8.870;2022-09-30T04:52:14;96021.38;;;5.96;100.00
11001;BME280;5553;48.506;8.870;2022-09-30T04:54:42;96011.91;;;5.87;100.00
11001;BME280;5553;48.506;8.870;2022-09-30T04:57:11;96015.97;;;5.89;100.00
11001;BME280;5553;48.506;8.870;2022-09-30T04:59:39;96011.91;;;5.87;100.00
11001;BME280;5553;48.506;8.870;2022-09-30T05:02:08;96012.56;;;5.89;100.00
11001;BME280;5553;48.506;8.870;2022-09-30T05:04:37;96017.41;;;6.00;100.00
11001;BME280;5553;48.506;8.870;2022-09-30T05:07:08;96017.25;;;6.02;100.00
11001;BME280;5553;48.506;8.870;2022-09-30T05:09:36;96022.41;;;6.10;100.00
11001;BME280;5553;48.506;8.870;2022-09-30T05:12:04;96016.38;;;6.09;100.00
11001;BME280;5553;48.506;8.870;2022-09-30T05:14:33;96030.72;;;6.13;100.00
11001;BME280;5553;48.506;8.870;2022-09-30T05:17:01;96026.16;;;6.15;100.00
11001;BME280;5553;48.506;8.870;2022-09-30T05:19:29;96029.28;;;6.11;100.00
11001;BME280;5553;48.506;8.870;2022-09-30T05:21:58;96036.63;;;6.15;100.00
11001;BME280;5553;48.506;8.870;2022-09-30T05:24:29;96041.28;;;6.05;100.00
11001;BME280;5553;48.506;8.870;2022-09-30T05:26:57;96034.13;;;5.99;100.00
11001;BME280;5553;48.506;8.870;2022-09-30T05:29:25;96035.31;;;6.11;100.00
11001;BME280;5553;48.506;8.870;2022-09-30T05:31:54;96039.25;;;6.15;100.00
11001;BME280;5553;48.506;8.870;2022-09-30T05:34:22;96042.59;;;6.24;100.00
11001;BME280;5553;48.506;8.870;2022-09-30T05:36:51;96047.31;;;6.29;100.00
11001;BME280;5553;48.506;8.870;2022-09-30T05:39:19;96046.00;;;6.33;100.00
11001;BME280;5553;48.506;8.870;2022-09-30T05:41:50;96046.97;;;6.32;100.00
11001;BME280;5553;48.506;8.870;2022-09-30T05:44:18;96045.44;;;6.37;100.00
11001;BME280;5553;48.506;8.870;2022-09-30T05:46:46;96037.22;;;6.26;100.00
11001;BME280;5553;48.506;8.870;2022-09-30T05:49:15;96040.97;;;6.46;100.00
11001;BME280;5553;48.506;8.870;2022-09-30T05:51:43;96043.75;;;6.45;100.00
11001;BME280;5553;48.506;8.870;2022-09-30T05:54:12;96050.59;;;6.69;100.00
11001;BME280;5553;48.506;8.870;2022-09-30T05:56:40;96042.19;;;6.73;100.00
11001;BME280;5553;48.506;8.870;2022-09-30T05:59:11;96047.25;;;6.75;100.00
11001;BME280;5553;48.506;8.870;2022-09-30T06:01:40;96053.56;;;6.65;100.00
11001;BME280;5553;48.506;8.870;2022-09-30T06:04:08;96057.19;;;6.79;100.00
11001;BME280;5553;48.506;8.870;2022-09-30T06:06:36;96064.59;;;6.76;100.00
11001;BME280;5553;48.506;8.870;2022-09-30T06:09:05;96061.38;;;6.74;100.00
11001;BME280;5553;48.506;8.870;2022-09-30T06:11:33;96075.66;;;6.86;100.00
11001;BME280;5553;48.506;8.870;2022-09-30T06:14:01;96075.31;;;6.89;100.00
11001;BME280;5553;48.506;8.870;2022-09-30T06:19:00;96078.22;;;6.94;100.00
11001;BME280;5553;48.506;8.870;2022-09-30T06:21:30;96079.50;;;6.98;100.00
11001;BME280;5553;48.506;8.870;2022-09-30T06:23:59;96086.59;;;6.89;100.00
11001;BME280;5553;48.506;8.870;2022-09-30T06:26:27;96082.09;;;6.98;100.00
11001;BME280;5553;48.506;8.870;2022-09-30T06:28:55;96081.91;;;7.00;100.00
11001;BME280;5553;48.506;8.870;2022-09-30T06:31:24;96091.84;;;6.89;100.00
11001;BME280;5553;48.506;8.870;2022-09-30T06:33:55;96104.34;;;7.02;100.00
11001;BME280;5553;48.506;8.870;2022-09-30T06:36:24;96119.91;;;7.04;100.00
11001;BME280;5553;48.506;8.870;2022-09-30T06:38:53;96119.38;;;7.08;100.00
11001;BME280;5553;48.506;8.870;2022-09-30T06:41:22;96117.19;;;6.97;100.00
11001;BME280;5553;48.506;8.870;2022-09-30T06:43:51;96119.50;;;6.77;100.00
11001;BME280;5553;48.506;8.870;2022-09-30T06:46:20;96135.38;;;6.99;100.00
11001;BME280;5553;48.506;8.870;2022-09-30T06:48:52;96131.84;;;6.92;100.00
11001;BME280;5553;48.506;8.870;2022-09-30T06:51:24;96131.38;;;6.88;100.00
11001;BME280;5553;48.506;8.870;2022-09-30T06:53:54;96143.59;;;6.96;100.00
11001;BME280;5553;48.506;8.870;2022-09-30T06:56:22;96157.63;;;7.03;100.00
11001;BME280;5553;48.506;8.870;2022-09-30T06:58:50;96163.78;;;7.10;100.00
11001;BME280;5553;48.506;8.870;2022-09-30T07:01:21;96173.81;;;7.06;100.00
11001;BME280;5553;48.506;8.870;2022-09-30T07:03:50;96173.84;;;7.21;100.00
11001;BME280;5553;48.506;8.870;2022-09-30T07:06:24;96173.09;;;7.35;100.00
11001;BME280;5553;48.506;8.870;2022-09-30T07:08:53;96174.59;;;7.30;100.00
11001;BME280;5553;48.506;8.870;2022-09-30T07:11:21;96175.34;;;7.39;100.00
11001;BME280;5553;48.506;8.870;2022-09-30T07:13:50;96170.91;;;7.69;100.00
11001;BME280;5553;48.506;8.870;2022-09-30T07:16:19;96169.09;;;7.84;100.00
11001;BME280;5553;48.506;8.870;2022-09-30T07:18:50;96163.38;;;7.66;100.00
11001;BME280;5553;48.506;8.870;2022-09-30T07:21:18;96150.06;;;7.82;100.00
11001;BME280;5553;48.506;8.870;2022-09-30T07:23:49;96157.66;;;8.06;100.00
11001;BME280;5553;48.506;8.870;2022-09-30T07:26:21;96147.72;;;8.23;100.00
11001;BME280;5553;48.506;8.870;2022-09-30T07:28:51;96139.56;;;8.33;100.00
11001;BME280;5553;48.506;8.870;2022-09-30T07:31:21;96119.97;;;8.36;100.00
11001;BME280;5553;48.506;8.870;2022-09-30T07:33:50;96114.94;;;8.19;100.00
11001;BME280;5553;48.506;8.870;2022-09-30T07:36:22;96107.50;;;8.23;100.00
11001;BME280;5553;48.506;8.870;2022-09-30T07:38:56;96098.13;;;8.14;100.00
11001;BME280;5553;48.506;8.870;2022-09-30T07:41:27;96101.28;;;8.09;100.00
11001;BME280;5553;48.506;8.870;2022-09-30T07:43:56;96102.59;;;8.35;100.00
11001;BME280;5553;48.506;8.870;2022-09-30T07:46:28;96087.63;;;8.35;100.00
11001;BME280;5553;48.506;8.870;2022-09-30T07:48:58;96082.47;;;8.42;100.00
11001;BME280;5553;48.506;8.870;2022-09-30T07:51:30;96085.53;;;8.30;100.00
11001;BME280;5553;48.506;8.870;2022-09-30T07:54:03;96085.28;;;8.04;100.00
11001;BME280;5553;48.506;8.870;2022-09-30T07:56:32;96085.09;;;8.27;100.00
11001;BME280;5553;48.506;8.870;2022-09-30T07:59:03;96093.09;;;7.97;100.00
11001;BME280;5553;48.506;8.870;2022-09-30T08:01:32;96095.28;;;7.94;100.00
11001;BME280;5553;48.506;8.870;2022-09-30T08:04:03;96095.44;;;7.92;100.00
11001;BME280;5553;48.506;8.870;2022-09-30T08:06:35;96100.97;;;7.97;100.00
11001;BME280;5553;48.506;8.870;2022-09-30T08:09:07;96106.22;;;7.97;100.00
11001;BME280;5553;48.506;8.870;2022-09-30T08:11:37;96104.78;;;8.31;100.00
11001;BME280;5553;48.506;8.870;2022-09-30T08:14:10;96102.75;;;8.33;100.00
11001;BME280;5553;48.506;8.870;2022-09-30T08:16:40;96093.66;;;8.50;100.00
11001;BME280;5553;48.506;8.870;2022-09-30T08:19:12;96094.81;;;8.91;100.00
11001;BME280;5553;48.506;8.870;2022-09-30T08:21:42;96087.34;;;8.94;100.00
11001;BME280;5553;48.506;8.870;2022-09-30T08:24:13;96074.66;;;8.76;100.00
11001;BME280;5553;48.506;8.870;2022-09-30T08:26:42;96067.97;;;9.02;100.00
11001;BME280;5553;48.506;8.870;2022-09-30T08:29:11;96056.50;;;9.10;100.00
11001;BME280;5553;48.506;8.870;2022-09-30T08:31:40;96049.91;;;9.27;100.00
11001;BME280;5553;48.506;8.870;2022-09-30T08:34:09;96043.97;;;9.53;100.00
11001;BME280;5553;48.506;8.870;2022-09-30T08:36:37;96024.09;;;9.44;100.00
11001;BME280;5553;48.506;8.870;2022-09-30T08:39:05;96021.06;;;9.47;100.00
11001;BME280;5553;48.506;8.870;2022-09-30T08:41:52;96020.72;;;9.70;100.00
11001;BME280;5553;48.506;8.870;2022-09-30T08:44:37;96007.13;;;10.61;100.00
11001;BME280;5553;48.506;8.870;2022-09-30T08:47:19;95987.63;;;10.42;100.00
11001;BME280;5553;48.506;8.870;2022-09-30T08:50:01;95978.66;;;10.96;100.00
11001;BME280;5553;48.506;8.870;2022-09-30T08:52:32;95980.56;;;11.41;100.00
11001;BME280;5553;48.506;8.870;2022-09-30T08:55:03;95969.75;;;12.25;100.00
11001;BME280;5553;48.506;8.870;2022-09-30T08:57:38;95951.34;;;12.62;100.00
11001;BME280;5553;48.506;8.870;2022-09-30T09:00:12;95946.78;;;11.56;100.00
11001;BME280;5553;48.506;8.870;2022-09-30T09:02:44;95956.16;;;12.22;100.00
11001;BME280;5553;48.506;8.870;2022-09-30T09:05:19;95948.88;;;11.85;100.00
11001;BME280;5553;48.506;8.870;2022-09-30T09:07:57;95955.16;;;11.46;100.00
11001;BME280;5553;48.506;8.870;2022-09-30T09:10:35;95955.16;;;12.16;100.00
11001;BME280;5553;48.506;8.870;2022-09-30T09:13:17;95953.59;;;11.70;100.00
11001;BME280;5553;48.506;8.870;2022-09-30T09:15:55;95959.22;;;12.19;100.00
11001;BME280;5553;48.506;8.870;2022-09-30T09:18:43;95965.00;;;13.76;100.00
11001;BME280;5553;48.506;8.870;2022-09-30T09:21:22;95947.44;;;12.65;100.00
11001;BME280;5553;48.506;8.870;2022-09-30T09:23:52;95947.16;;;13.35;100.00
11001;BME280;5553;48.506;8.870;2022-09-30T09:26:23;95943.94;;;14.23;100.00
11001;BME280;5553;48.506;8.870;2022-09-30T09:29:07;95943.44;;;13.72;100.00
11001;BME280;5553;48.506;8.870;2022-09-30T09:31:42;95929.72;;;13.75;96.56
11001;BME280;5553;48.506;8.870;2022-09-30T09:34:11;95927.94;;;13.58;95.72
11001;BME280;5553;48.506;8.870;2022-09-30T09:36:53;95958.06;;;15.17;96.25
11001;BME280;5553;48.506;8.870;2022-09-30T09:42:46;95928.13;;;13.56;91.92
11001;BME280;5553;48.506;8.870;2022-09-30T09:45:27;95959.09;;;13.44;96.24
11001;BME280;5553;48.506;8.870;2022-09-30T09:47:57;95959.25;;;13.05;97.33
11001;BME280;5553;48.506;8.870;2022-09-30T09:50:35;95967.81;;;13.08;100.00
11001;BME280;5553;48.506;8.870;2022-09-30T09:53:26;95973.16;;;13.01;100.00
11001;BME280;5553;48.506;8.870;2022-09-30T09:55:58;95963.19;;;13.58;98.38
11001;BME280;5553;48.506;8.870;2022-09-30T09:58:27;95949.03;;;14.36;91.90
11001;BME280;5553;48.506;8.870;2022-09-30T10:01:10;95964.13;;;13.94;94.78
11001;BME280;5553;48.506;8.870;2022-09-30T10:04:06;95957.88;;;13.21;93.02
11001;BME280;5553;48.506;8.870;2022-09-30T10:06:46;95977.34;;;14.12;97.10
11001;BME280;5553;48.506;8.870;2022-09-30T10:09:23;95946.53;;;13.69;88.61
11001;BME280;5553;48.506;8.870;2022-09-30T10:12:25;95954.94;;;13.96;89.89
11001;BME280;5553;48.506;8.870;2022-09-30T10:14:58;95939.63;;;14.64;85.01
11001;BME280;5553;48.506;8.870;2022-09-30T10:17:32;95949.97;;;15.64;81.92
11001;BME280;5553;48.506;8.870;2022-09-30T10:20:05;95939.41;;;15.41;79.04
11001;BME280;5553;48.506;8.870;2022-09-30T10:22:35;95933.16;;;15.47;77.86
11001;BME280;5553;48.506;8.870;2022-09-30T10:25:20;95938.88;;;15.96;76.72
11001;BME280;5553;48.506;8.870;2022-09-30T10:27:54;95929.41;;;16.00;75.62
11001;BME280;5553;48.506;8.870;2022-09-30T10:30:32;95939.25;;;17.67;73.59
11001;BME280;5553;48.506;8.870;2022-09-30T10:33:12;95922.44;;;18.47;69.80
11001;BME280;5553;48.506;8.870;2022-09-30T10:36:00;95911.34;;;15.62;71.98
11001;BME280;5553;48.506;8.870;2022-09-30T10:38:29;95907.16;;;15.37;72.09
11001;BME280;5553;48.506;8.870;2022-09-30T10:41:00;95939.34;;;16.22;72.48
11001;BME280;5553;48.506;8.870;2022-09-30T10:43:33;95927.47;;;17.63;69.53
11001;BME280;5553;48.506;8.870;2022-09-30T10:46:05;95875.81;;;17.69;65.16
11001;BME280;5553;48.506;8.870;2022-09-30T10:48:37;95888.06;;;18.24;65.84
11001;BME280;5553;48.506;8.870;2022-09-30T10:51:22;95882.03;;;18.39;63.99
11001;BME280;5553;48.506;8.870;2022-09-30T10:53:51;95869.94;;;19.79;59.49
11001;BME280;5553;48.506;8.870;2022-09-30T10:56:37;95864.34;;;19.96;59.06
11001;BME280;5553;48.506;8.870;2022-09-30T10:59:11;95829.03;;;18.15;59.89
11001;BME280;5553;48.506;8.870;2022-09-30T11:01:47;95842.50;;;17.44;60.91
11001;BME280;5553;48.506;8.870;2022-09-30T11:04:25;95857.84;;;18.51;60.16
11001;BME280;5553;48.506;8.870;2022-09-30T11:06:59;95855.97;;;17.60;61.60
11001;BME280;5553;48.506;8.870;2022-09-30T11:09:34;95839.53;;;18.32;59.32
11001;BME280;5553;48.506;8.870;2022-09-30T11:12:12;95838.28;;;18.82;57.78
11001;BME280;5553;48.506;8.870;2022-09-30T11:14:46;95832.75;;;18.14;58.97
11001;BME280;5553;48.506;8.870;2022-09-30T11:17:24;95857.66;;;20.13;56.24
11001;BME280;5553;48.506;8.870;2022-09-30T11:20:12;95843.94;;;17.57;60.17
11001;BME280;5553;48.506;8.870;2022-09-30T11:22:49;95832.50;;;17.84;58.88
11001;BME280;5553;48.506;8.870;2022-09-30T11:25:23;95864.38;;;20.52;56.02
11001;BME280;5553;48.506;8.870;2022-09-30T11:28:10;95845.03;;;19.78;55.71
11001;BME280;5553;48.506;8.870;2022-09-30T11:30:47;95835.63;;;18.08;58.95
11001;BME280;5553;48.506;8.870;2022-09-30T11:36:21;95855.38;;;19.44;56.94
11001;BME280;5553;48.506;8.870;2022-09-30T11:39:12;95864.22;;;19.50;57.14
11001;BME280;5553;48.506;8.870;2022-09-30T11:41:50;95862.72;;;20.10;56.05
11001;BME280;5553;48.506;8.870;2022-09-30T11:44:27;95767.50;;;18.37;53.14
11001;BME280;5553;48.506;8.870;2022-09-30T11:47:23;95873.69;;;20.85;54.08
11001;BME280;5553;48.506;8.870;2022-09-30T11:50:07;95837.69;;;19.33;55.51
11001;BME280;5553;48.506;8.870;2022-09-30T11:52:50;95835.41;;;20.33;53.52
11001;BME280;5553;48.506;8.870;2022-09-30T11:55:34;95696.75;;;19.23;46.73
11001;BME280;5553;48.506;8.870;2022-09-30T11:58:09;95722.22;;;18.58;48.92
11001;BME280;5553;48.506;8.870;2022-09-30T12:00:40;95681.19;;;17.15;49.26
11001;BME280;5553;48.506;8.870;2022-09-30T12:03:12;95720.50;;;17.29;51.27
11001;BME280;5553;48.506;8.870;2022-09-30T12:05:48;95741.78;;;16.97;53.06
11001;BME280;5553;48.506;8.870;2022-09-30T12:08:26;95794.25;;;16.58;57.60
11001;BME280;5553;48.506;8.870;2022-09-30T12:11:00;95813.28;;;16.67;57.77
11001;BME280;5553;48.506;8.870;2022-09-30T12:13:34;95821.34;;;16.72;58.05
11001;BME280;5553;48.506;8.870;2022-09-30T12:16:15;95823.22;;;16.16;59.94
11001;BME280;5553;48.506;8.870;2022-09-30T12:18:48;95849.56;;;17.12;58.76
11001;BME280;5553;48.506;8.870;2022-09-30T12:21:21;95813.97;;;17.72;55.74
11001;BME280;5553;48.506;8.870;2022-09-30T12:23:59;95796.19;;;17.56;55.17
11001;BME280;5553;48.506;8.870;2022-09-30T12:26:30;95835.00;;;17.41;57.91
11001;BME280;5553;48.506;8.870;2022-09-30T12:29:02;95805.50;;;17.80;55.36
11001;BME280;5553;48.506;8.870;2022-09-30T12:32:03;95820.19;;;17.28;57.16
11001;BME280;5553;48.506;8.870;2022-09-30T12:34:50;95796.19;;;16.63;56.61
11001;BME280;5553;48.506;8.870;2022-09-30T12:37:43;95813.19;;;18.04;54.76
11001;BME280;5553;48.506;8.870;2022-09-30T12:40:39;95800.81;;;17.92;54.50
11001;BME280;5553;48.506;8.870;2022-09-30T12:43:26;95820.28;;;17.39;56.70
11001;BME280;5553;48.506;8.870;2022-09-30T12:46:19;95828.94;;;17.24;56.94
11001;BME280;5553;48.506;8.870;2022-09-30T12:48:52;95801.53;;;16.63;56.39
11001;BME280;5553;48.506;8.870;2022-09-30T12:51:25;95774.59;;;16.81;54.17
11001;BME280;5553;48.506;8.870;2022-09-30T12:53:59;95807.72;;;18.68;52.07
11001;BME280;5553;48.506;8.870;2022-09-30T12:56:33;95792.59;;;19.93;48.73
11001;BME280;5553;48.506;8.870;2022-09-30T12:59:03;95780.75;;;19.48;49.37
11001;BME280;5553;48.506;8.870;2022-09-30T13:01:35;95771.13;;;20.54;46.44
11001;BME280;5553;48.506;8.870;2022-09-30T13:04:16;95722.59;;;17.87;50.19
11001;BME280;5553;48.506;8.870;2022-09-30T13:07:06;95762.84;;;15.99;55.96
11001;BME280;5553;48.506;8.870;2022-09-30T13:09:36;95798.28;;;16.61;55.99
11001;BME280;5553;48.506;8.870;2022-09-30T13:12:39;95734.13;;;17.92;48.75
11001;BME280;5553;48.506;8.870;2022-09-30T13:15:25;95752.38;;;17.19;51.54
11001;BME280;5553;48.506;8.870;2022-09-30T13:21:18;95706.13;;;16.16;50.55
11001;BME280;5553;48.506;8.870;2022-09-30T13:23:48;95747.25;;;16.86;51.80
11001;BME280;5553;48.506;8.870;2022-09-30T13:26:44;95841.09;;;19.13;52.67
11001;BME280;5553;48.506;8.870;2022-09-30T13:29:35;95807.31;;;20.16;48.26
11001;BME280;5553;48.506;8.870;2022-09-30T13:32:05;95758.78;;;19.15;47.87
11001;BME280;5553;48.506;8.870;2022-09-30T13:34:54;95769.06;;;20.05;46.17
11001;BME280;5553;48.506;8.870;2022-09-30T13:37:31;95689.09;;;18.59;45.08
11001;BME280;5553;48.506;8.870;2022-09-30T13:40:02;95697.28;;;18.37;45.83
11001;BME280;5553;48.506;8.870;2022-09-30T13:42:40;95736.38;;;17.46;49.79
11001;BME280;5553;48.506;8.870;2022-09-30T13:45:17;95760.00;;;16.84;52.74
11001;BME280;5553;48.506;8.870;2022-09-30T13:47:49;95723.25;;;16.64;50.56
11001;BME280;5553;48.506;8.870;2022-09-30T13:50:28;95720.84;;;16.01;51.46
11001;BME280;5553;48.506;8.870;2022-09-30T13:53:01;95730.13;;;16.38;51.42
11001;BME280;5553;48.506;8.870;2022-09-30T13:55:35;95676.19;;;16.25;47.52
11001;BME280;5553;48.506;8.870;2022-09-30T13:58:16;95677.19;;;16.41;47.15
11001;BME280;5553;48.506;8.870;2022-09-30T14:00:56;95742.94;;;17.34;49.03
11001;BME280;5553;48.506;8.870;2022-09-30T14:03:48;95694.56;;;16.71;47.97
11001;BME280;5553;48.506;8.870;2022-09-30T14:06:30;95738.53;;;16.73;49.87
11001;BME280;5553;48.506;8.870;2022-09-30T14:09:22;95696.84;;;15.62;50.32
11001;BME280;5553;48.506;8.870;2022-09-30T14:12:12;95728.72;;;15.96;50.80
11001;BME280;5553;48.506;8.870;2022-09-30T14:15:02;95802.03;;;17.25;52.01
11001;BME280;5553;48.506;8.870;2022-09-30T14:17:46;95732.41;;;16.29;50.25
11001;BME280;5553;48.506;8.870;2022-09-30T14:20:28;95753.41;;;17.13;49.02
11001;BME280;5553;48.506;8.870;2022-09-30T14:40:31;95759.59;;;18.58;46.30
11001;BME280;5553;48.506;8.870;2022-09-30T14:43:03;95785.56;;;18.67;48.25
11001;BME280;5553;48.506;8.870;2022-09-30T14:45:33;95750.06;;;17.55;49.12
11001;BME280;5553;48.506;8.870;2022-09-30T14:48:06;95761.25;;;17.25;50.74
11001;BME280;5553;48.506;8.870;2022-09-30T14:50:40;95768.41;;;16.97;51.36
11001;BME280;5553;48.506;8.870;2022-09-30T14:53:23;95763.94;;;16.59;51.76
11001;BME280;5553;48.506;8.870;2022-09-30T14:55:55;95794.81;;;16.77;53.63
11001;BME280;5553;48.506;8.870;2022-09-30T14:58:26;95728.44;;;16.53;49.81
11001;BME280;5553;48.506;8.870;2022-09-30T15:00:58;95755.00;;;16.70;51.35
11001;BME280;5553;48.506;8.870;2022-09-30T15:03:28;95750.00;;;16.52;51.68
11001;BME280;5553;48.506;8.870;2022-09-30T15:05:57;95740.88;;;16.26;51.77
11001;BME280;5553;48.506;8.870;2022-09-30T15:08:26;95753.44;;;16.30;52.26
11001;BME280;5553;48.506;8.870;2022-09-30T15:10:57;95733.34;;;15.84;52.54
11001;BME280;5553;48.506;8.870;2022-09-30T15:13:27;95749.06;;;15.85;53.41
11001;BME280;5553;48.506;8.870;2022-09-30T15:15:57;95784.19;;;16.04;54.16
11001;BME280;5553;48.506;8.870;2022-09-30T15:18:32;95760.97;;;15.49;54.53
11001;BME280;5553;48.506;8.870;2022-09-30T15:21:09;95790.13;;;15.61;55.62
11001;BME280;5553;48.506;8.870;2022-09-30T15:23:41;95752.25;;;15.54;54.33
11001;BME280;5553;48.506;8.870;2022-09-30T15:26:13;95752.81;;;15.10;54.35
11001;BME280;5553;48.506;8.870;2022-09-30T15:28:42;95768.28;;;15.13;55.82
11001;BME280;5553;48.506;8.870;2022-09-30T15:31:23;95791.97;;;15.15;56.79
11001;BME280;5553;48.506;8.870;2022-09-30T15:34:03;95766.44;;;14.85;55.43
11001;BME280;5553;48.506;8.870;2022-09-30T15:36:33;95789.63;;;14.90;56.05
11001;BME280;5553;48.506;8.870;2022-09-30T15:39:03;95802.34;;;14.76;56.84
11001;BME280;5553;48.506;8.870;2022-09-30T15:41:39;95807.81;;;14.58;57.96
11001;BME280;5553;48.506;8.870;2022-09-30T15:44:15;95802.06;;;14.26;58.58
11001;BME280;5553;48.506;8.870;2022-09-30T15:47:08;95794.63;;;13.81;59.05
11001;BME280;5553;48.506;8.870;2022-09-30T15:49:45;95816.88;;;13.80;60.25
11001;BME280;5553;48.506;8.870;2022-09-30T15:52:27;95827.94;;;13.77;60.75
11001;BME280;5553;48.506;8.870;2022-09-30T15:55:01;95843.44;;;13.91;61.57
11001;BME280;5553;48.506;8.870;2022-09-30T15:57:43;95847.91;;;13.79;62.00
11001;BME280;5553;48.506;8.870;2022-09-30T16:00:31;95868.09;;;13.92;63.05
11001;BME280;5553;48.506;8.870;2022-09-30T16:03:22;95865.91;;;13.89;62.26
11001;BME280;5553;48.506;8.870;2022-09-30T16:05:52;95872.72;;;13.96;62.74
11001;BME280;5553;48.506;8.870;2022-09-30T16:08:24;95889.06;;;13.82;63.96
11001;BME280;5553;48.506;8.870;2022-09-30T16:10:57;95887.53;;;13.74;63.65
11001;BME280;5553;48.506;8.870;2022-09-30T16:13:29;95901.56;;;13.63;64.67
11001;BME280;5553;48.506;8.870;2022-09-30T16:15:59;95905.34;;;13.55;64.87
11001;BME280;5553;48.506;8.870;2022-09-30T16:18:29;95924.00;;;13.60;66.37
11001;BME280;5553;48.506;8.870;2022-09-30T16:20:59;95939.63;;;13.50;67.64
11001;BME280;5553;48.506;8.870;2022-09-30T16:23:30;95949.06;;;13.46;68.51
11001;BME280;5553;48.506;8.870;2022-09-30T16:26:16;95959.09;;;13.44;68.96
11001;BME280;5553;48.506;8.870;2022-09-30T16:28:47;95975.84;;;13.56;69.92
11001;BME280;5553;48.506;8.870;2022-09-30T16:31:16;96010.25;;;13.44;74.71
11001;BME280;5553;48.506;8.870;2022-09-30T16:33:45;96025.31;;;13.25;77.72
11001;BME280;5553;48.506;8.870;2022-09-30T16:36:13;95988.06;;;13.39;75.29
11001;BME280;5553;48.506;8.870;2022-09-30T16:38:42;96012.06;;;13.25;78.58
11001;BME280;5553;48.506;8.870;2022-09-30T16:41:11;96010.56;;;13.11;80.11